sensor_id;sensor_type;location;lat;lon;timestamp;P1;durP1;ratioP1;P2;durP2;ratioP2
23745;SDS011;12053;48.878;9.632;2024-01-15T00:00:39;50.22;;;17.00;;
23745;SDS011;12053;48.878;9.632;2024-01-15T00:03:06;43.63;;;17.00;;
23745;SDS011;12053;48.878;9.632;2024-01-15T00:05:34;44.03;;;16.85;;
23745;SDS011;12053;48.878;9.632;2024-01-15T00:08:01;50.75;;;18.40;;
23745;SDS011;12053;48.878;9.632;2024-01-15T00:10:29;49.53;;;17.38;;
23745;SDS011;12053;48.878;9.632;2024-01-15T00:12:56;47.65;;;16.48;;
23745;SDS011;12053;48.878;9.632;2024-01-15T00:15:23;41.72;;;13.98;;
23745;SDS011;12053;48.878;9.632;2024-01-15T00:17:51;42.10;;;15.07;;
23745;SDS011;12053;48.878;9.632;2024-01-15T00:20:18;44.58;;;16.10;;
23745;SDS011;12053;48.878;9.632;2024-01-15T00:22:45;38.03;;;15.00;;
23745;SDS011;12053;48.878;9.632;2024-01-15T00:25:13;46.05;;;17.27;;
23745;SDS011;12053;48.878;9.632;2024-01-15T00:27:40;45.65;;;15.90;;
23745;SDS011;12053;48.878;9.632;2024-01-15T00:30:08;38.60;;;15.20;;
23745;SDS011;12053;48.878;9.632;2024-01-15T00:32:36;39.05;;;15.48;;
23745;SDS011;12053;48.878;9.632;2024-01-15T00:35:03;48.38;;;18.35;;
23745;SDS011;12053;48.878;9.632;2024-01-15T00:37:31;39.20;;;15.27;;
23745;SDS011;12053;48.878;9.632;2024-01-15T00:39:58;43.13;;;17.25;;
23745;SDS011;12053;48.878;9.632;2024-01-15T00:42:26;38.70;;;14.38;;
23745;SDS011;12053;48.878;9.632;2024-01-15T00:44:53;40.67;;;15.38;;
23745;SDS011;12053;48.878;9.632;2024-01-15T00:47:21;53.97;;;21.20;;
23745;SDS011;12053;48.878;9.632;2024-01-15T00:49:48;66.90;;;22.48;;
23745;SDS011;12053;48.878;9.632;2024-01-15T00:52:15;38.63;;;14.20;;
23745;SDS011;12053;48.878;9.632;2024-01-15T00:54:42;42.28;;;14.98;;
23745;SDS011;12053;48.878;9.632;2024-01-15T00:57:10;39.33;;;15.23;;
23745;SDS011;12053;48.878;9.632;2024-01-15T00:59:37;39.40;;;14.05;;
23745;SDS011;12053;48.878;9.632;2024-01-15T01:02:05;35.63;;;15.00;;
23745;SDS011;12053;48.878;9.632;2024-01-15T01:04:32;32.60;;;14.40;;
23745;SDS011;12053;48.878;9.632;2024-01-15T01:06:59;33.63;;;12.95;;
23745;SDS011;12053;48.878;9.632;2024-01-15T01:09:27;37.55;;;14.43;;
23745;SDS011;12053;48.878;9.632;2024-01-15T01:11:57;39.55;;;15.93;;
23745;SDS011;12053;48.878;9.632;2024-01-15T01:14:24;34.67;;;13.82;;
23745;SDS011;12053;48.878;9.632;2024-01-15T01:16:51;38.80;;;14.52;;
23745;SDS011;12053;48.878;9.632;2024-01-15T01:19:19;38.22;;;14.30;;
23745;SDS011;12053;48.878;9.632;2024-01-15T01:21:46;36.95;;;14.85;;
23745;SDS011;12053;48.878;9.632;2024-01-15T01:24:14;36.80;;;15.30;;
23745;SDS011;12053;48.878;9.632;2024-01-15T01:26:41;35.00;;;13.52;;
23745;SDS011;12053;48.878;9.632;2024-01-15T01:29:08;40.58;;;16.83;;
23745;SDS011;12053;48.878;9.632;2024-01-15T01:31:36;39.78;;;15.70;;
23745;SDS011;12053;48.878;9.632;2024-01-15T01:34:03;46.92;;;16.58;;
23745;SDS011;12053;48.878;9.632;2024-01-15T01:36:31;43.17;;;15.63;;
23745;SDS011;12053;48.878;9.632;2024-01-15T01:38:58;37.13;;;14.63;;
23745;SDS011;12053;48.878;9.632;2024-01-15T01:41:26;40.45;;;15.68;;
23745;SDS011;12053;48.878;9.632;2024-01-15T01:43:53;42.50;;;15.13;;
23745;SDS011;12053;48.878;9.632;2024-01-15T01:46:20;42.83;;;15.95;;
23745;SDS011;12053;48.878;9.632;2024-01-15T01:48:47;43.30;;;16.13;;
23745;SDS011;12053;48.878;9.632;2024-01-15T01:51:15;45.67;;;16.10;;
23745;SDS011;12053;48.878;9.632;2024-01-15T01:53:43;45.45;;;17.77;;
23745;SDS011;12053;48.878;9.632;2024-01-15T01:56:11;43.63;;;16.77;;
23745;SDS011;12053;48.878;9.632;2024-01-15T01:58:39;39.05;;;15.95;;
23745;SDS011;12053;48.878;9.632;2024-01-15T02:01:06;40.90;;;15.35;;
23745;SDS011;12053;48.878;9.632;2024-01-15T02:03:34;38.10;;;15.40;;
23745;SDS011;12053;48.878;9.632;2024-01-15T02:06:02;41.42;;;16.25;;
23745;SDS011;12053;48.878;9.632;2024-01-15T02:08:30;35.83;;;14.70;;
23745;SDS011;12053;48.878;9.632;2024-01-15T02:10:57;43.03;;;14.73;;
23745;SDS011;12053;48.878;9.632;2024-01-15T02:13:24;34.70;;;14.38;;
23745;SDS011;12053;48.878;9.632;2024-01-15T02:15:51;37.35;;;14.18;;
23745;SDS011;12053;48.878;9.632;2024-01-15T02:18:19;38.80;;;15.38;;
23745;SDS011;12053;48.878;9.632;2024-01-15T02:20:46;41.75;;;15.10;;
23745;SDS011;12053;48.878;9.632;2024-01-15T02:23:14;39.25;;;15.80;;
23745;SDS011;12053;48.878;9.632;2024-01-15T02:25:45;32.40;;;14.65;;
23745;SDS011;12053;48.878;9.632;2024-01-15T02:28:16;39.70;;;13.93;;
23745;SDS011;12053;48.878;9.632;2024-01-15T02:30:44;31.27;;;12.82;;
23745;SDS011;12053;48.878;9.632;2024-01-15T02:33:12;39.05;;;14.50;;
23745;SDS011;12053;48.878;9.632;2024-01-15T02:35:40;160.50;;;65.57;;
23745;SDS011;12053;48.878;9.632;2024-01-15T02:38:07;35.22;;;14.60;;
23745;SDS011;12053;48.878;9.632;2024-01-15T02:40:35;32.33;;;13.93;;
23745;SDS011;12053;48.878;9.632;2024-01-15T02:43:02;34.80;;;13.70;;
23745;SDS011;12053;48.878;9.632;2024-01-15T02:45:30;33.75;;;14.27;;
23745;SDS011;12053;48.878;9.632;2024-01-15T02:47:57;34.72;;;13.43;;
23745;SDS011;12053;48.878;9.632;2024-01-15T02:50:24;36.00;;;14.40;;
23745;SDS011;12053;48.878;9.632;2024-01-15T02:52:52;39.83;;;15.70;;
23745;SDS011;12053;48.878;9.632;2024-01-15T02:55:19;36.58;;;15.77;;
23745;SDS011;12053;48.878;9.632;2024-01-15T02:57:46;36.65;;;14.43;;
23745;SDS011;12053;48.878;9.632;2024-01-15T03:00:14;31.73;;;14.07;;
23745;SDS011;12053;48.878;9.632;2024-01-15T03:02:44;35.33;;;14.68;;
23745;SDS011;12053;48.878;9.632;2024-01-15T03:07:41;36.22;;;14.40;;
23745;SDS011;12053;48.878;9.632;2024-01-15T03:10:09;34.72;;;13.90;;
23745;SDS011;12053;48.878;9.632;2024-01-15T03:12:36;39.00;;;14.65;;
23745;SDS011;12053;48.878;9.632;2024-01-15T03:15:04;32.45;;;14.38;;
23745;SDS011;12053;48.878;9.632;2024-01-15T03:17:31;34.50;;;13.02;;
23745;SDS011;12053;48.878;9.632;2024-01-15T03:19:59;36.28;;;14.23;;
23745;SDS011;12053;48.878;9.632;2024-01-15T03:22:26;33.58;;;13.68;;
23745;SDS011;12053;48.878;9.632;2024-01-15T03:24:54;32.33;;;13.98;;
23745;SDS011;12053;48.878;9.632;2024-01-15T03:27:21;38.35;;;13.93;;
23745;SDS011;12053;48.878;9.632;2024-01-15T03:29:49;36.28;;;14.43;;
23745;SDS011;12053;48.878;9.632;2024-01-15T03:32:16;36.70;;;15.32;;
23745;SDS011;12053;48.878;9.632;2024-01-15T03:34:46;31.02;;;12.82;;
23745;SDS011;12053;48.878;9.632;2024-01-15T03:37:14;31.27;;;13.70;;
23745;SDS011;12053;48.878;9.632;2024-01-15T03:39:42;34.25;;;13.32;;
23745;SDS011;12053;48.878;9.632;2024-01-15T03:42:09;32.83;;;13.55;;
23745;SDS011;12053;48.878;9.632;2024-01-15T03:44:36;32.50;;;13.32;;
23745;SDS011;12053;48.878;9.632;2024-01-15T03:47:04;30.35;;;12.60;;
23745;SDS011;12053;48.878;9.632;2024-01-15T03:49:31;29.65;;;12.85;;
23745;SDS011;12053;48.878;9.632;2024-01-15T03:51:59;31.52;;;13.10;;
23745;SDS011;12053;48.878;9.632;2024-01-15T03:54:26;27.48;;;11.52;;
23745;SDS011;12053;48.878;9.632;2024-01-15T03:56:53;29.70;;;12.35;;
23745;SDS011;12053;48.878;9.632;2024-01-15T03:59:21;29.58;;;12.13;;
23745;SDS011;12053;48.878;9.632;2024-01-15T04:01:48;28.08;;;11.65;;
23745;SDS011;12053;48.878;9.632;2024-01-15T04:04:17;28.60;;;11.95;;
23745;SDS011;12053;48.878;9.632;2024-01-15T04:06:45;30.48;;;12.73;;
23745;SDS011;12053;48.878;9.632;2024-01-15T04:09:13;32.85;;;11.88;;
23745;SDS011;12053;48.878;9.632;2024-01-15T04:11:40;28.70;;;12.15;;
23745;SDS011;12053;48.878;9.632;2024-01-15T04:14:08;28.90;;;11.73;;
23745;SDS011;12053;48.878;9.632;2024-01-15T04:16:36;29.85;;;11.93;;
23745;SDS011;12053;48.878;9.632;2024-01-15T04:19:04;30.23;;;12.82;;
23745;SDS011;12053;48.878;9.632;2024-01-15T04:21:31;28.95;;;12.95;;
23745;SDS011;12053;48.878;9.632;2024-01-15T04:23:59;25.73;;;11.55;;
23745;SDS011;12053;48.878;9.632;2024-01-15T04:26:26;27.70;;;11.95;;
23745;SDS011;12053;48.878;9.632;2024-01-15T04:28:53;26.58;;;11.00;;
23745;SDS011;12053;48.878;9.632;2024-01-15T04:31:24;31.65;;;13.20;;
23745;SDS011;12053;48.878;9.632;2024-01-15T04:33:53;29.48;;;11.98;;
23745;SDS011;12053;48.878;9.632;2024-01-15T04:36:21;35.30;;;12.98;;
23745;SDS011;12053;48.878;9.632;2024-01-15T04:38:49;27.25;;;12.13;;
23745;SDS011;12053;48.878;9.632;2024-01-15T04:41:16;33.17;;;12.43;;
23745;SDS011;12053;48.878;9.632;2024-01-15T04:43:44;27.38;;;11.40;;
23745;SDS011;12053;48.878;9.632;2024-01-15T04:46:11;30.20;;;12.63;;
23745;SDS011;12053;48.878;9.632;2024-01-15T04:48:39;24.83;;;11.60;;
23745;SDS011;12053;48.878;9.632;2024-01-15T04:51:08;28.98;;;11.57;;
23745;SDS011;12053;48.878;9.632;2024-01-15T04:53:36;33.45;;;11.50;;
23745;SDS011;12053;48.878;9.632;2024-01-15T04:56:03;26.55;;;12.40;;
23745;SDS011;12053;48.878;9.632;2024-01-15T04:58:30;29.92;;;12.45;;
23745;SDS011;12053;48.878;9.632;2024-01-15T05:00:58;27.95;;;11.63;;
23745;SDS011;12053;48.878;9.632;2024-01-15T05:03:25;32.22;;;12.02;;
23745;SDS011;12053;48.878;9.632;2024-01-15T05:05:53;31.73;;;11.98;;
23745;SDS011;12053;48.878;9.632;2024-01-15T05:08:20;29.88;;;11.52;;
23745;SDS011;12053;48.878;9.632;2024-01-15T05:10:48;25.77;;;11.40;;
23745;SDS011;12053;48.878;9.632;2024-01-15T05:13:15;29.77;;;12.68;;
23745;SDS011;12053;48.878;9.632;2024-01-15T05:15:43;28.55;;;11.68;;
23745;SDS011;12053;48.878;9.632;2024-01-15T05:18:10;24.73;;;11.35;;
23745;SDS011;12053;48.878;9.632;2024-01-15T05:20:38;30.88;;;12.00;;
23745;SDS011;12053;48.878;9.632;2024-01-15T05:23:05;32.40;;;12.85;;
23745;SDS011;12053;48.878;9.632;2024-01-15T05:25:33;28.17;;;12.25;;
23745;SDS011;12053;48.878;9.632;2024-01-15T05:28:01;22.30;;;11.55;;
23745;SDS011;12053;48.878;9.632;2024-01-15T05:30:28;27.38;;;10.55;;
23745;SDS011;12053;48.878;9.632;2024-01-15T05:32:56;25.23;;;11.73;;
23745;SDS011;12053;48.878;9.632;2024-01-15T05:35:24;26.13;;;11.63;;
23745;SDS011;12053;48.878;9.632;2024-01-15T05:37:51;31.90;;;13.45;;
23745;SDS011;12053;48.878;9.632;2024-01-15T05:40:18;29.15;;;12.98;;
23745;SDS011;12053;48.878;9.632;2024-01-15T05:42:46;27.73;;;12.45;;
23745;SDS011;12053;48.878;9.632;2024-01-15T05:45:13;27.17;;;12.35;;
23745;SDS011;12053;48.878;9.632;2024-01-15T05:47:40;29.30;;;12.45;;
23745;SDS011;12053;48.878;9.632;2024-01-15T05:50:08;23.98;;;11.35;;
23745;SDS011;12053;48.878;9.632;2024-01-15T05:52:36;24.13;;;11.27;;
23745;SDS011;12053;48.878;9.632;2024-01-15T05:55:03;24.63;;;11.73;;
23745;SDS011;12053;48.878;9.632;2024-01-15T05:57:30;25.77;;;9.63;;
23745;SDS011;12053;48.878;9.632;2024-01-15T05:59:58;18.92;;;9.68;;
23745;SDS011;12053;48.878;9.632;2024-01-15T06:02:25;23.73;;;10.98;;
23745;SDS011;12053;48.878;9.632;2024-01-15T06:04:53;29.20;;;12.55;;
23745;SDS011;12053;48.878;9.632;2024-01-15T06:07:20;25.52;;;11.68;;
23745;SDS011;12053;48.878;9.632;2024-01-15T06:09:49;24.77;;;10.32;;
23745;SDS011;12053;48.878;9.632;2024-01-15T06:12:16;16.80;;;8.35;;
23745;SDS011;12053;48.878;9.632;2024-01-15T06:14:44;19.35;;;9.38;;
23745;SDS011;12053;48.878;9.632;2024-01-15T06:17:12;20.92;;;9.98;;
23745;SDS011;12053;48.878;9.632;2024-01-15T06:19:39;22.08;;;10.43;;
23745;SDS011;12053;48.878;9.632;2024-01-15T06:22:06;21.33;;;9.85;;
23745;SDS011;12053;48.878;9.632;2024-01-15T06:24:34;23.63;;;11.27;;
23745;SDS011;12053;48.878;9.632;2024-01-15T06:27:01;19.02;;;9.82;;
23745;SDS011;12053;48.878;9.632;2024-01-15T06:29:29;22.23;;;10.90;;
23745;SDS011;12053;48.878;9.632;2024-01-15T06:31:57;21.80;;;10.13;;
23745;SDS011;12053;48.878;9.632;2024-01-15T06:34:24;24.63;;;11.02;;
23745;SDS011;12053;48.878;9.632;2024-01-15T06:36:52;37.13;;;15.07;;
23745;SDS011;12053;48.878;9.632;2024-01-15T06:39:19;35.90;;;14.18;;
23745;SDS011;12053;48.878;9.632;2024-01-15T06:41:47;24.73;;;11.93;;
23745;SDS011;12053;48.878;9.632;2024-01-15T06:44:14;31.13;;;14.20;;
23745;SDS011;12053;48.878;9.632;2024-01-15T06:46:42;36.63;;;16.55;;
23745;SDS011;12053;48.878;9.632;2024-01-15T06:49:10;37.05;;;16.50;;
23745;SDS011;12053;48.878;9.632;2024-01-15T06:51:37;41.47;;;16.83;;
23745;SDS011;12053;48.878;9.632;2024-01-15T06:54:05;30.35;;;12.80;;
23745;SDS011;12053;48.878;9.632;2024-01-15T06:56:33;32.08;;;13.52;;
23745;SDS011;12053;48.878;9.632;2024-01-15T06:59:00;26.42;;;11.32;;
23745;SDS011;12053;48.878;9.632;2024-01-15T07:01:27;20.70;;;9.07;;
23745;SDS011;12053;48.878;9.632;2024-01-15T07:03:55;21.58;;;9.55;;
23745;SDS011;12053;48.878;9.632;2024-01-15T07:06:22;20.02;;;9.10;;
23745;SDS011;12053;48.878;9.632;2024-01-15T07:08:49;19.95;;;9.65;;
23745;SDS011;12053;48.878;9.632;2024-01-15T07:11:17;18.80;;;8.90;;
23745;SDS011;12053;48.878;9.632;2024-01-15T07:13:44;17.20;;;8.15;;
23745;SDS011;12053;48.878;9.632;2024-01-15T07:16:11;22.45;;;9.43;;
23745;SDS011;12053;48.878;9.632;2024-01-15T07:18:45;17.98;;;8.93;;
23745;SDS011;12053;48.878;9.632;2024-01-15T07:21:12;18.75;;;8.63;;
23745;SDS011;12053;48.878;9.632;2024-01-15T07:23:39;23.48;;;9.75;;
23745;SDS011;12053;48.878;9.632;2024-01-15T07:26:08;20.15;;;9.40;;
23745;SDS011;12053;48.878;9.632;2024-01-15T07:28:36;20.23;;;9.57;;
23745;SDS011;12053;48.878;9.632;2024-01-15T07:31:11;17.65;;;8.65;;
23745;SDS011;12053;48.878;9.632;2024-01-15T07:33:38;26.10;;;11.00;;
23745;SDS011;12053;48.878;9.632;2024-01-15T07:36:06;18.23;;;9.63;;
23745;SDS011;12053;48.878;9.632;2024-01-15T07:38:33;21.45;;;9.85;;
23745;SDS011;12053;48.878;9.632;2024-01-15T07:41:00;23.17;;;10.30;;
23745;SDS011;12053;48.878;9.632;2024-01-15T07:43:28;20.83;;;9.70;;
23745;SDS011;12053;48.878;9.632;2024-01-15T07:45:55;20.73;;;9.50;;
23745;SDS011;12053;48.878;9.632;2024-01-15T07:48:23;27.13;;;10.00;;
23745;SDS011;12053;48.878;9.632;2024-01-15T07:50:51;21.80;;;9.88;;
23745;SDS011;12053;48.878;9.632;2024-01-15T07:53:18;21.05;;;10.00;;
23745;SDS011;12053;48.878;9.632;2024-01-15T07:55:45;22.80;;;10.75;;
23745;SDS011;12053;48.878;9.632;2024-01-15T07:58:13;22.67;;;9.32;;
23745;SDS011;12053;48.878;9.632;2024-01-15T08:00:42;19.55;;;9.00;;
23745;SDS011;12053;48.878;9.632;2024-01-15T08:03:10;22.70;;;9.85;;
23745;SDS011;12053;48.878;9.632;2024-01-15T08:05:38;18.63;;;8.90;;
23745;SDS011;12053;48.878;9.632;2024-01-15T08:08:06;20.50;;;9.63;;
23745;SDS011;12053;48.878;9.632;2024-01-15T08:10:33;19.92;;;10.07;;
23745;SDS011;12053;48.878;9.632;2024-01-15T08:13:00;20.95;;;10.32;;
23745;SDS011;12053;48.878;9.632;2024-01-15T08:15:28;21.73;;;10.07;;
23745;SDS011;12053;48.878;9.632;2024-01-15T08:17:57;19.95;;;9.80;;
23745;SDS011;12053;48.878;9.632;2024-01-15T08:20:25;21.52;;;10.35;;
23745;SDS011;12053;48.878;9.632;2024-01-15T08:22:53;19.17;;;10.80;;
23745;SDS011;12053;48.878;9.632;2024-01-15T08:25:20;19.88;;;10.20;;
23745;SDS011;12053;48.878;9.632;2024-01-15T08:27:47;24.27;;;10.93;;
23745;SDS011;12053;48.878;9.632;2024-01-15T08:30:15;31.00;;;18.48;;
23745;SDS011;12053;48.878;9.632;2024-01-15T08:32:42;23.05;;;11.52;;
23745;SDS011;12053;48.878;9.632;2024-01-15T08:35:10;26.40;;;11.63;;
23745;SDS011;12053;48.878;9.632;2024-01-15T08:37:38;22.20;;;11.57;;
23745;SDS011;12053;48.878;9.632;2024-01-15T08:40:05;21.42;;;11.40;;
23745;SDS011;12053;48.878;9.632;2024-01-15T08:42:33;26.77;;;10.40;;
23745;SDS011;12053;48.878;9.632;2024-01-15T08:45:01;23.58;;;11.10;;
23745;SDS011;12053;48.878;9.632;2024-01-15T08:47:28;21.08;;;11.10;;
23745;SDS011;12053;48.878;9.632;2024-01-15T08:49:55;19.85;;;10.23;;
23745;SDS011;12053;48.878;9.632;2024-01-15T08:52:22;21.83;;;10.57;;
23745;SDS011;12053;48.878;9.632;2024-01-15T08:54:50;18.52;;;8.88;;
23745;SDS011;12053;48.878;9.632;2024-01-15T08:57:17;19.67;;;8.73;;
23745;SDS011;12053;48.878;9.632;2024-01-15T08:59:44;19.08;;;10.43;;
23745;SDS011;12053;48.878;9.632;2024-01-15T09:02:12;19.27;;;10.02;;
23745;SDS011;12053;48.878;9.632;2024-01-15T09:04:39;23.25;;;9.90;;
23745;SDS011;12053;48.878;9.632;2024-01-15T09:07:07;22.65;;;11.68;;
23745;SDS011;12053;48.878;9.632;2024-01-15T09:09:34;20.48;;;10.05;;
23745;SDS011;12053;48.878;9.632;2024-01-15T09:12:03;18.58;;;10.05;;
23745;SDS011;12053;48.878;9.632;2024-01-15T09:14:30;21.65;;;11.05;;
23745;SDS011;12053;48.878;9.632;2024-01-15T09:19:29;20.70;;;9.43;;
23745;SDS011;12053;48.878;9.632;2024-01-15T09:21:57;13.95;;;6.82;;
23745;SDS011;12053;48.878;9.632;2024-01-15T09:24:25;16.52;;;8.73;;
23745;SDS011;12053;48.878;9.632;2024-01-15T09:26:54;13.98;;;6.60;;
23745;SDS011;12053;48.878;9.632;2024-01-15T09:29:22;15.77;;;7.20;;
23745;SDS011;12053;48.878;9.632;2024-01-15T09:31:50;12.35;;;6.70;;
23745;SDS011;12053;48.878;9.632;2024-01-15T09:34:18;14.52;;;6.70;;
23745;SDS011;12053;48.878;9.632;2024-01-15T09:36:46;16.20;;;6.72;;
23745;SDS011;12053;48.878;9.632;2024-01-15T09:39:15;16.20;;;7.35;;
23745;SDS011;12053;48.878;9.632;2024-01-15T09:41:42;14.05;;;6.93;;
23745;SDS011;12053;48.878;9.632;2024-01-15T09:44:10;12.52;;;6.10;;
23745;SDS011;12053;48.878;9.632;2024-01-15T09:46:38;10.88;;;5.72;;
23745;SDS011;12053;48.878;9.632;2024-01-15T09:49:06;11.60;;;6.40;;
23745;SDS011;12053;48.878;9.632;2024-01-15T09:51:34;13.82;;;6.72;;
23745;SDS011;12053;48.878;9.632;2024-01-15T09:54:03;13.60;;;6.30;;
23745;SDS011;12053;48.878;9.632;2024-01-15T09:56:30;18.63;;;6.10;;
23745;SDS011;12053;48.878;9.632;2024-01-15T09:58:58;11.48;;;5.15;;
23745;SDS011;12053;48.878;9.632;2024-01-15T10:01:25;10.85;;;5.32;;
23745;SDS011;12053;48.878;9.632;2024-01-15T10:03:54;13.57;;;6.80;;
23745;SDS011;12053;48.878;9.632;2024-01-15T10:06:22;10.60;;;5.55;;
23745;SDS011;12053;48.878;9.632;2024-01-15T10:08:50;12.52;;;6.53;;
23745;SDS011;12053;48.878;9.632;2024-01-15T10:11:18;12.05;;;5.60;;
23745;SDS011;12053;48.878;9.632;2024-01-15T10:13:45;10.48;;;5.78;;
23745;SDS011;12053;48.878;9.632;2024-01-15T10:16:16;8.90;;;4.65;;
23745;SDS011;12053;48.878;9.632;2024-01-15T10:18:43;10.07;;;5.65;;
23745;SDS011;12053;48.878;9.632;2024-01-15T10:21:11;9.63;;;5.47;;
23745;SDS011;12053;48.878;9.632;2024-01-15T10:23:38;7.63;;;4.72;;
23745;SDS011;12053;48.878;9.632;2024-01-15T10:26:05;9.52;;;5.10;;
23745;SDS011;12053;48.878;9.632;2024-01-15T10:28:32;9.48;;;5.03;;
23745;SDS011;12053;48.878;9.632;2024-01-15T10:31:00;11.77;;;6.22;;
23745;SDS011;12053;48.878;9.632;2024-01-15T10:33:27;11.98;;;5.57;;
23745;SDS011;12053;48.878;9.632;2024-01-15T10:35:56;13.32;;;6.28;;
23745;SDS011;12053;48.878;9.632;2024-01-15T10:38:24;13.82;;;7.13;;
23745;SDS011;12053;48.878;9.632;2024-01-15T10:40:51;13.82;;;6.18;;
23745;SDS011;12053;48.878;9.632;2024-01-15T10:43:19;12.75;;;6.45;;
23745;SDS011;12053;48.878;9.632;2024-01-15T10:45:47;12.65;;;5.78;;
23745;SDS011;12053;48.878;9.632;2024-01-15T10:48:16;8.60;;;5.05;;
23745;SDS011;12053;48.878;9.632;2024-01-15T10:50:44;10.68;;;4.70;;
23745;SDS011;12053;48.878;9.632;2024-01-15T10:53:12;9.27;;;4.47;;
23745;SDS011;12053;48.878;9.632;2024-01-15T10:55:41;13.85;;;5.43;;
23745;SDS011;12053;48.878;9.632;2024-01-15T10:58:09;11.30;;;5.75;;
23745;SDS011;12053;48.878;9.632;2024-01-15T11:00:36;13.30;;;5.82;;
23745;SDS011;12053;48.878;9.632;2024-01-15T11:03:05;11.93;;;5.75;;
23745;SDS011;12053;48.878;9.632;2024-01-15T11:05:33;6.28;;;3.25;;
23745;SDS011;12053;48.878;9.632;2024-01-15T11:08:01;9.20;;;4.65;;
23745;SDS011;12053;48.878;9.632;2024-01-15T11:10:41;10.35;;;4.25;;
23745;SDS011;12053;48.878;9.632;2024-01-15T11:13:09;9.02;;;4.50;;
23745;SDS011;12053;48.878;9.632;2024-01-15T11:16:20;7.90;;;3.75;;
23745;SDS011;12053;48.878;9.632;2024-01-15T11:18:28;9.77;;;4.03;;
23745;SDS011;12053;48.878;9.632;2024-01-15T11:23:42;8.02;;;4.32;;
23745;SDS011;12053;48.878;9.632;2024-01-15T11:26:29;9.10;;;4.25;;
23745;SDS011;12053;48.878;9.632;2024-01-15T11:28:57;8.25;;;5.03;;
23745;SDS011;12053;48.878;9.632;2024-01-15T11:33:56;6.82;;;3.72;;
23745;SDS011;12053;48.878;9.632;2024-01-15T11:41:57;12.35;;;5.57;;
23745;SDS011;12053;48.878;9.632;2024-01-15T11:44:24;9.77;;;5.68;;
23745;SDS011;12053;48.878;9.632;2024-01-15T11:46:59;15.20;;;6.95;;
23745;SDS011;12053;48.878;9.632;2024-01-15T11:49:34;9.50;;;6.32;;
23745;SDS011;12053;48.878;9.632;2024-01-15T11:52:09;8.98;;;5.47;;
23745;SDS011;12053;48.878;9.632;2024-01-15T11:54:38;13.98;;;6.43;;
23745;SDS011;12053;48.878;9.632;2024-01-15T11:57:09;13.00;;;5.70;;
23745;SDS011;12053;48.878;9.632;2024-01-15T11:59:38;13.23;;;7.95;;
23745;SDS011;12053;48.878;9.632;2024-01-15T12:02:05;15.35;;;7.45;;
23745;SDS011;12053;48.878;9.632;2024-01-15T12:04:33;11.43;;;6.15;;
23745;SDS011;12053;48.878;9.632;2024-01-15T12:07:01;10.07;;;5.93;;
23745;SDS011;12053;48.878;9.632;2024-01-15T12:09:28;10.93;;;6.93;;
23745;SDS011;12053;48.878;9.632;2024-01-15T12:11:57;13.40;;;6.07;;
23745;SDS011;12053;48.878;9.632;2024-01-15T12:14:28;10.93;;;5.97;;
23745;SDS011;12053;48.878;9.632;2024-01-15T12:16:55;9.13;;;5.03;;
23745;SDS011;12053;48.878;9.632;2024-01-15T12:19:22;11.18;;;6.40;;
23745;SDS011;12053;48.878;9.632;2024-01-15T12:21:50;12.95;;;6.55;;
23745;SDS011;12053;48.878;9.632;2024-01-15T12:24:18;12.10;;;6.93;;
23745;SDS011;12053;48.878;9.632;2024-01-15T12:26:45;13.50;;;6.32;;
23745;SDS011;12053;48.878;9.632;2024-01-15T12:29:12;12.18;;;5.90;;
23745;SDS011;12053;48.878;9.632;2024-01-15T12:31:40;12.85;;;7.68;;
23745;SDS011;12053;48.878;9.632;2024-01-15T12:34:07;9.93;;;4.90;;
23745;SDS011;12053;48.878;9.632;2024-01-15T12:36:34;11.05;;;6.05;;
23745;SDS011;12053;48.878;9.632;2024-01-15T12:39:02;13.35;;;6.22;;
23745;SDS011;12053;48.878;9.632;2024-01-15T12:41:29;10.05;;;5.82;;
23745;SDS011;12053;48.878;9.632;2024-01-15T12:43:56;13.95;;;7.55;;
23745;SDS011;12053;48.878;9.632;2024-01-15T12:46:23;11.43;;;7.07;;
23745;SDS011;12053;48.878;9.632;2024-01-15T12:48:51;12.88;;;7.13;;
23745;SDS011;12053;48.878;9.632;2024-01-15T12:51:24;11.90;;;6.70;;
23745;SDS011;12053;48.878;9.632;2024-01-15T12:53:52;13.32;;;6.53;;
23745;SDS011;12053;48.878;9.632;2024-01-15T12:56:19;17.42;;;7.72;;
23745;SDS011;12053;48.878;9.632;2024-01-15T12:58:47;16.40;;;8.13;;
23745;SDS011;12053;48.878;9.632;2024-01-15T13:01:14;9.55;;;4.75;;
23745;SDS011;12053;48.878;9.632;2024-01-15T13:03:41;13.98;;;6.47;;
23745;SDS011;12053;48.878;9.632;2024-01-15T13:06:09;15.45;;;8.57;;
23745;SDS011;12053;48.878;9.632;2024-01-15T13:08:36;10.27;;;4.82;;
23745;SDS011;12053;48.878;9.632;2024-01-15T13:11:03;12.85;;;6.20;;
23745;SDS011;12053;48.878;9.632;2024-01-15T13:13:31;12.23;;;5.70;;
23745;SDS011;12053;48.878;9.632;2024-01-15T13:16:00;14.40;;;7.20;;
23745;SDS011;12053;48.878;9.632;2024-01-15T13:18:28;14.10;;;7.32;;
23745;SDS011;12053;48.878;9.632;2024-01-15T13:20:57;12.73;;;5.80;;
23745;SDS011;12053;48.878;9.632;2024-01-15T13:23:24;14.43;;;7.80;;
23745;SDS011;12053;48.878;9.632;2024-01-15T13:25:51;12.38;;;6.22;;
23745;SDS011;12053;48.878;9.632;2024-01-15T13:28:19;15.45;;;8.18;;
23745;SDS011;12053;48.878;9.632;2024-01-15T13:30:49;16.83;;;8.13;;
23745;SDS011;12053;48.878;9.632;2024-01-15T13:33:16;10.20;;;4.97;;
23745;SDS011;12053;48.878;9.632;2024-01-15T13:35:44;30.95;;;13.32;;
23745;SDS011;12053;48.878;9.632;2024-01-15T13:38:16;7.40;;;5.63;;
23745;SDS011;12053;48.878;9.632;2024-01-15T13:40:43;12.40;;;6.70;;
23745;SDS011;12053;48.878;9.632;2024-01-15T13:43:13;8.27;;;5.30;;
23745;SDS011;12053;48.878;9.632;2024-01-15T13:45:41;13.40;;;6.20;;
23745;SDS011;12053;48.878;9.632;2024-01-15T13:48:08;9.02;;;6.10;;
23745;SDS011;12053;48.878;9.632;2024-01-15T13:50:36;11.73;;;6.82;;
23745;SDS011;12053;48.878;9.632;2024-01-15T13:53:03;11.63;;;6.60;;
23745;SDS011;12053;48.878;9.632;2024-01-15T13:55:31;10.00;;;5.50;;
23745;SDS011;12053;48.878;9.632;2024-01-15T13:57:58;9.93;;;6.25;;
23745;SDS011;12053;48.878;9.632;2024-01-15T14:00:26;8.95;;;6.20;;
23745;SDS011;12053;48.878;9.632;2024-01-15T14:02:53;12.63;;;7.15;;
23745;SDS011;12053;48.878;9.632;2024-01-15T14:05:21;10.48;;;5.20;;
23745;SDS011;12053;48.878;9.632;2024-01-15T14:07:48;12.25;;;8.13;;
23745;SDS011;12053;48.878;9.632;2024-01-15T14:10:15;13.52;;;7.00;;
23745;SDS011;12053;48.878;9.632;2024-01-15T14:12:43;8.15;;;4.22;;
23745;SDS011;12053;48.878;9.632;2024-01-15T14:15:10;13.30;;;7.40;;
23745;SDS011;12053;48.878;9.632;2024-01-15T14:17:37;14.98;;;7.68;;
23745;SDS011;12053;48.878;9.632;2024-01-15T14:20:05;11.80;;;6.85;;
23745;SDS011;12053;48.878;9.632;2024-01-15T14:22:33;17.05;;;7.97;;
23745;SDS011;12053;48.878;9.632;2024-01-15T14:25:00;11.18;;;7.03;;
23745;SDS011;12053;48.878;9.632;2024-01-15T14:27:27;14.15;;;7.30;;
23745;SDS011;12053;48.878;9.632;2024-01-15T14:29:55;14.38;;;8.40;;
23745;SDS011;12053;48.878;9.632;2024-01-15T14:32:22;12.60;;;7.85;;
23745;SDS011;12053;48.878;9.632;2024-01-15T14:34:49;12.50;;;8.40;;
23745;SDS011;12053;48.878;9.632;2024-01-15T14:37:17;16.17;;;9.02;;
23745;SDS011;12053;48.878;9.632;2024-01-15T14:39:44;13.05;;;6.97;;
23745;SDS011;12053;48.878;9.632;2024-01-15T14:42:11;17.67;;;9.75;;
23745;SDS011;12053;48.878;9.632;2024-01-15T14:44:38;13.90;;;7.57;;
23745;SDS011;12053;48.878;9.632;2024-01-15T14:47:07;16.38;;;8.77;;